sensor_id;sensor_type;location;lat;lon;timestamp;P1;durP1;ratioP1;P2;durP2;ratioP2
22480;SDS011;11407;56.964;-2.212;2022-10-16T00:01:18;1.77;;;0.60;;
22480;SDS011;11407;56.964;-2.212;2022-10-16T00:03:45;1.23;;;0.70;;
22480;SDS011;11407;56.964;-2.212;2022-10-16T00:06:12;2.83;;;0.60;;
22480;SDS011;11407;56.964;-2.212;2022-10-16T00:08:39;2.67;;;0.80;;
22480;SDS011;11407;56.964;-2.212;2022-10-16T00:11:06;1.50;;;0.50;;
22480;SDS011;11407;56.964;-2.212;2022-10-16T00:13:38;1.43;;;0.50;;
22480;SDS011;11407;56.964;-2.212;2022-10-16T00:16:05;0.83;;;0.50;;
22480;SDS011;11407;56.964;-2.212;2022-10-16T00:18:31;1.90;;;0.60;;
22480;SDS011;11407;56.964;-2.212;2022-10-16T00:21:07;0.97;;;0.60;;
22480;SDS011;11407;56.964;-2.212;2022-10-16T00:23:35;1.30;;;0.70;;
22480;SDS011;11407;56.964;-2.212;2022-10-16T00:26:02;3.27;;;0.83;;
22480;SDS011;11407;56.964;-2.212;2022-10-16T00:28:30;1.20;;;0.80;;
22480;SDS011;11407;56.964;-2.212;2022-10-16T00:30:56;0.87;;;0.50;;
22480;SDS011;11407;56.964;-2.212;2022-10-16T00:33:21;0.73;;;0.70;;
22480;SDS011;11407;56.964;-2.212;2022-10-16T00:35:48;0.50;;;0.50;;
22480;SDS011;11407;56.964;-2.212;2022-10-16T00:38:14;1.27;;;0.60;;
22480;SDS011;11407;56.964;-2.212;2022-10-16T00:40:39;0.40;;;0.40;;
22480;SDS011;11407;56.964;-2.212;2022-10-16T00:43:31;1.33;;;0.70;;
22480;SDS011;11407;56.964;-2.212;2022-10-16T00:46:04;0.73;;;0.50;;
22480;SDS011;11407;56.964;-2.212;2022-10-16T00:49:00;0.80;;;0.50;;
22480;SDS011;11407;56.964;-2.212;2022-10-16T00:51:28;0.83;;;0.60;;
22480;SDS011;11407;56.964;-2.212;2022-10-16T00:53:57;0.47;;;0.47;;
22480;SDS011;11407;56.964;-2.212;2022-10-16T00:56:22;0.53;;;0.53;;
22480;SDS011;11407;56.964;-2.212;2022-10-16T00:58:48;2.10;;;0.60;;
22480;SDS011;11407;56.964;-2.212;2022-10-16T01:01:14;1.73;;;0.40;;
22480;SDS011;11407;56.964;-2.212;2022-10-16T01:03:39;2.40;;;0.50;;
22480;SDS011;11407;56.964;-2.212;2022-10-16T01:09:13;1.27;;;0.67;;
22480;SDS011;11407;56.964;-2.212;2022-10-16T01:11:51;1.50;;;0.80;;
22480;SDS011;11407;56.964;-2.212;2022-10-16T01:14:48;1.97;;;0.60;;
22480;SDS011;11407;56.964;-2.212;2022-10-16T01:20:39;2.53;;;0.67;;
22480;SDS011;11407;56.964;-2.212;2022-10-16T01:23:15;1.47;;;0.50;;
22480;SDS011;11407;56.964;-2.212;2022-10-16T01:28:10;0.70;;;0.70;;
22480;SDS011;11407;56.964;-2.212;2022-10-16T01:30:38;0.67;;;0.53;;
22480;SDS011;11407;56.964;-2.212;2022-10-16T01:33:11;3.80;;;0.80;;
22480;SDS011;11407;56.964;-2.212;2022-10-16T01:35:51;1.60;;;0.70;;
22480;SDS011;11407;56.964;-2.212;2022-10-16T01:38:21;0.87;;;0.57;;
22480;SDS011;11407;56.964;-2.212;2022-10-16T01:40:57;0.70;;;0.60;;
22480;SDS011;11407;56.964;-2.212;2022-10-16T01:46:30;0.70;;;0.43;;
22480;SDS011;11407;56.964;-2.212;2022-10-16T01:48:56;0.50;;;0.50;;
22480;SDS011;11407;56.964;-2.212;2022-10-16T01:51:24;0.87;;;0.53;;
22480;SDS011;11407;56.964;-2.212;2022-10-16T01:53:52;0.40;;;0.40;;
22480;SDS011;11407;56.964;-2.212;2022-10-16T01:56:20;0.90;;;0.60;;
22480;SDS011;11407;56.964;-2.212;2022-10-16T01:58:49;1.30;;;0.70;;
22480;SDS011;11407;56.964;-2.212;2022-10-16T02:01:22;0.70;;;0.40;;
22480;SDS011;11407;56.964;-2.212;2022-10-16T02:03:51;1.13;;;0.53;;
22480;SDS011;11407;56.964;-2.212;2022-10-16T02:06:19;0.83;;;0.80;;
22480;SDS011;11407;56.964;-2.212;2022-10-16T02:08:45;1.10;;;0.70;;
22480;SDS011;11407;56.964;-2.212;2022-10-16T02:11:11;0.73;;;0.50;;
22480;SDS011;11407;56.964;-2.212;2022-10-16T02:14:10;2.10;;;0.70;;
22480;SDS011;11407;56.964;-2.212;2022-10-16T02:16:34;0.50;;;0.50;;
22480;SDS011;11407;56.964;-2.212;2022-10-16T02:19:02;0.67;;;0.60;;
22480;SDS011;11407;56.964;-2.212;2022-10-16T02:21:29;0.97;;;0.60;;
22480;SDS011;11407;56.964;-2.212;2022-10-16T02:29:13;0.40;;;0.40;;
22480;SDS011;11407;56.964;-2.212;2022-10-16T02:31:43;0.90;;;0.60;;
22480;SDS011;11407;56.964;-2.212;2022-10-16T02:34:12;1.60;;;0.70;;
22480;SDS011;11407;56.964;-2.212;2022-10-16T02:36:40;0.93;;;0.60;;
22480;SDS011;11407;56.964;-2.212;2022-10-16T02:39:07;0.57;;;0.57;;
22480;SDS011;11407;56.964;-2.212;2022-10-16T02:41:34;1.60;;;0.80;;
22480;SDS011;11407;56.964;-2.212;2022-10-16T02:43:59;1.07;;;0.70;;
22480;SDS011;11407;56.964;-2.212;2022-10-16T02:46:25;0.73;;;0.60;;
22480;SDS011;11407;56.964;-2.212;2022-10-16T02:48:50;1.00;;;0.60;;
22480;SDS011;11407;56.964;-2.212;2022-10-16T02:51:15;2.07;;;0.80;;
22480;SDS011;11407;56.964;-2.212;2022-10-16T02:53:41;0.70;;;0.50;;
22480;SDS011;11407;56.964;-2.212;2022-10-16T02:56:06;2.13;;;0.60;;
22480;SDS011;11407;56.964;-2.212;2022-10-16T02:58:32;0.70;;;0.70;;
22480;SDS011;11407;56.964;-2.212;2022-10-16T03:00:57;0.83;;;0.60;;
22480;SDS011;11407;56.964;-2.212;2022-10-16T03:03:23;0.97;;;0.50;;
22480;SDS011;11407;56.964;-2.212;2022-10-16T03:05:48;0.90;;;0.70;;
22480;SDS011;11407;56.964;-2.212;2022-10-16T03:08:13;0.87;;;0.60;;
22480;SDS011;11407;56.964;-2.212;2022-10-16T03:10:39;1.30;;;0.90;;
22480;SDS011;11407;56.964;-2.212;2022-10-16T03:13:04;0.63;;;0.53;;
22480;SDS011;11407;56.964;-2.212;2022-10-16T03:15:30;0.93;;;0.50;;
22480;SDS011;11407;56.964;-2.212;2022-10-16T03:17:58;0.60;;;0.60;;
22480;SDS011;11407;56.964;-2.212;2022-10-16T03:20:24;2.30;;;0.50;;
22480;SDS011;11407;56.964;-2.212;2022-10-16T03:22:50;0.90;;;0.53;;
22480;SDS011;11407;56.964;-2.212;2022-10-16T03:25:16;1.37;;;0.50;;
22480;SDS011;11407;56.964;-2.212;2022-10-16T03:27:41;0.87;;;0.60;;
22480;SDS011;11407;56.964;-2.212;2022-10-16T03:30:07;0.50;;;0.40;;
22480;SDS011;11407;56.964;-2.212;2022-10-16T03:32:33;0.40;;;0.40;;
22480;SDS011;11407;56.964;-2.212;2022-10-16T03:34:58;0.43;;;0.40;;
22480;SDS011;11407;56.964;-2.212;2022-10-16T03:37:24;0.47;;;0.47;;
22480;SDS011;11407;56.964;-2.212;2022-10-16T03:39:49;0.30;;;0.30;;
22480;SDS011;11407;56.964;-2.212;2022-10-16T03:42:15;0.47;;;0.40;;
22480;SDS011;11407;56.964;-2.212;2022-10-16T03:44:40;0.40;;;0.40;;
22480;SDS011;11407;56.964;-2.212;2022-10-16T03:47:05;0.20;;;0.20;;
22480;SDS011;11407;56.964;-2.212;2022-10-16T03:49:31;0.30;;;0.30;;
22480;SDS011;11407;56.964;-2.212;2022-10-16T03:51:56;0.30;;;0.30;;
22480;SDS011;11407;56.964;-2.212;2022-10-16T03:54:21;0.30;;;0.30;;
22480;SDS011;11407;56.964;-2.212;2022-10-16T03:56:47;0.30;;;0.30;;
22480;SDS011;11407;56.964;-2.212;2022-10-16T03:59:13;0.87;;;0.33;;
22480;SDS011;11407;56.964;-2.212;2022-10-16T04:01:38;0.10;;;0.10;;
22480;SDS011;11407;56.964;-2.212;2022-10-16T04:04:04;0.30;;;0.30;;
22480;SDS011;11407;56.964;-2.212;2022-10-16T04:06:29;0.57;;;0.20;;
22480;SDS011;11407;56.964;-2.212;2022-10-16T04:08:55;0.20;;;0.20;;
22480;SDS011;11407;56.964;-2.212;2022-10-16T04:11:21;0.20;;;0.20;;
22480;SDS011;11407;56.964;-2.212;2022-10-16T04:13:46;0.30;;;0.30;;
22480;SDS011;11407;56.964;-2.212;2022-10-16T04:16:11;0.40;;;0.40;;
22480;SDS011;11407;56.964;-2.212;2022-10-16T04:18:37;0.20;;;0.20;;
22480;SDS011;11407;56.964;-2.212;2022-10-16T04:21:03;0.20;;;0.20;;
22480;SDS011;11407;56.964;-2.212;2022-10-16T04:23:32;0.10;;;0.10;;
22480;SDS011;11407;56.964;-2.212;2022-10-16T04:25:58;0.40;;;0.40;;
22480;SDS011;11407;56.964;-2.212;2022-10-16T04:28:24;0.57;;;0.40;;
22480;SDS011;11407;56.964;-2.212;2022-10-16T04:30:49;0.20;;;0.20;;
22480;SDS011;11407;56.964;-2.212;2022-10-16T04:33:15;0.63;;;0.30;;
22480;SDS011;11407;56.964;-2.212;2022-10-16T04:35:40;0.77;;;0.30;;
22480;SDS011;11407;56.964;-2.212;2022-10-16T04:38:05;0.50;;;0.47;;
22480;SDS011;11407;56.964;-2.212;2022-10-16T04:40:31;0.47;;;0.40;;
22480;SDS011;11407;56.964;-2.212;2022-10-16T04:42:58;0.30;;;0.30;;
22480;SDS011;11407;56.964;-2.212;2022-10-16T04:45:24;0.30;;;0.30;;
22480;SDS011;11407;56.964;-2.212;2022-10-16T04:47:50;0.30;;;0.30;;
22480;SDS011;11407;56.964;-2.212;2022-10-16T04:50:15;0.63;;;0.40;;
22480;SDS011;11407;56.964;-2.212;2022-10-16T04:52:41;0.30;;;0.30;;
22480;SDS011;11407;56.964;-2.212;2022-10-16T04:55:06;1.20;;;0.53;;
22480;SDS011;11407;56.964;-2.212;2022-10-16T04:57:32;0.37;;;0.30;;
22480;SDS011;11407;56.964;-2.212;2022-10-16T04:59:58;0.20;;;0.20;;
22480;SDS011;11407;56.964;-2.212;2022-10-16T05:02:25;0.30;;;0.30;;
22480;SDS011;11407;56.964;-2.212;2022-10-16T05:04:50;0.30;;;0.30;;
22480;SDS011;11407;56.964;-2.212;2022-10-16T05:07:16;0.33;;;0.33;;
22480;SDS011;11407;56.964;-2.212;2022-10-16T05:09:42;0.43;;;0.40;;
22480;SDS011;11407;56.964;-2.212;2022-10-16T05:12:07;0.47;;;0.30;;
22480;SDS011;11407;56.964;-2.212;2022-10-16T05:14:33;0.50;;;0.40;;
22480;SDS011;11407;56.964;-2.212;2022-10-16T05:16:59;1.00;;;0.30;;
22480;SDS011;11407;56.964;-2.212;2022-10-16T05:19:24;0.30;;;0.30;;
22480;SDS011;11407;56.964;-2.212;2022-10-16T05:21:50;0.37;;;0.37;;
22480;SDS011;11407;56.964;-2.212;2022-10-16T05:24:15;0.30;;;0.30;;
22480;SDS011;11407;56.964;-2.212;2022-10-16T05:26:41;0.40;;;0.40;;
22480;SDS011;11407;56.964;-2.212;2022-10-16T05:29:06;1.13;;;0.40;;
22480;SDS011;11407;56.964;-2.212;2022-10-16T05:31:32;0.40;;;0.40;;
22480;SDS011;11407;56.964;-2.212;2022-10-16T05:34:00;0.23;;;0.23;;
22480;SDS011;11407;56.964;-2.212;2022-10-16T05:36:26;0.90;;;0.40;;
22480;SDS011;11407;56.964;-2.212;2022-10-16T05:38:52;0.97;;;0.40;;
22480;SDS011;11407;56.964;-2.212;2022-10-16T05:41:18;0.90;;;0.30;;
22480;SDS011;11407;56.964;-2.212;2022-10-16T05:43:46;0.60;;;0.30;;
22480;SDS011;11407;56.964;-2.212;2022-10-16T05:46:13;0.30;;;0.30;;
22480;SDS011;11407;56.964;-2.212;2022-10-16T05:48:39;2.10;;;0.73;;
22480;SDS011;11407;56.964;-2.212;2022-10-16T05:51:05;0.30;;;0.30;;
22480;SDS011;11407;56.964;-2.212;2022-10-16T05:53:32;0.87;;;0.37;;
22480;SDS011;11407;56.964;-2.212;2022-10-16T05:55:59;0.50;;;0.40;;
22480;SDS011;11407;56.964;-2.212;2022-10-16T05:58:27;0.40;;;0.37;;
22480;SDS011;11407;56.964;-2.212;2022-10-16T06:00:58;0.30;;;0.30;;
22480;SDS011;11407;56.964;-2.212;2022-10-16T06:03:24;0.57;;;0.40;;
22480;SDS011;11407;56.964;-2.212;2022-10-16T06:05:50;0.70;;;0.30;;
22480;SDS011;11407;56.964;-2.212;2022-10-16T06:08:16;0.73;;;0.30;;
22480;SDS011;11407;56.964;-2.212;2022-10-16T06:10:42;0.20;;;0.20;;
22480;SDS011;11407;56.964;-2.212;2022-10-16T06:13:08;0.33;;;0.30;;
22480;SDS011;11407;56.964;-2.212;2022-10-16T06:15:34;0.23;;;0.23;;
22480;SDS011;11407;56.964;-2.212;2022-10-16T06:17:59;0.40;;;0.40;;
22480;SDS011;11407;56.964;-2.212;2022-10-16T06:20:25;1.03;;;0.30;;
22480;SDS011;11407;56.964;-2.212;2022-10-16T06:22:51;0.60;;;0.47;;
22480;SDS011;11407;56.964;-2.212;2022-10-16T06:25:16;0.33;;;0.30;;
22480;SDS011;11407;56.964;-2.212;2022-10-16T06:27:42;0.30;;;0.30;;
22480;SDS011;11407;56.964;-2.212;2022-10-16T06:30:07;0.40;;;0.40;;
22480;SDS011;11407;56.964;-2.212;2022-10-16T06:32:33;0.40;;;0.40;;
22480;SDS011;11407;56.964;-2.212;2022-10-16T06:34:58;0.40;;;0.40;;
22480;SDS011;11407;56.964;-2.212;2022-10-16T06:37:24;0.53;;;0.43;;
22480;SDS011;11407;56.964;-2.212;2022-10-16T06:39:50;1.10;;;0.40;;
22480;SDS011;11407;56.964;-2.212;2022-10-16T06:42:17;0.30;;;0.30;;
22480;SDS011;11407;56.964;-2.212;2022-10-16T06:44:43;0.30;;;0.30;;
22480;SDS011;11407;56.964;-2.212;2022-10-16T06:47:08;0.83;;;0.27;;
22480;SDS011;11407;56.964;-2.212;2022-10-16T06:49:34;1.03;;;0.50;;
22480;SDS011;11407;56.964;-2.212;2022-10-16T06:51:59;0.60;;;0.37;;
22480;SDS011;11407;56.964;-2.212;2022-10-16T06:54:25;1.13;;;0.40;;
22480;SDS011;11407;56.964;-2.212;2022-10-16T06:56:50;0.60;;;0.50;;
22480;SDS011;11407;56.964;-2.212;2022-10-16T06:59:16;1.90;;;0.40;;
22480;SDS011;11407;56.964;-2.212;2022-10-16T07:01:42;0.60;;;0.40;;
22480;SDS011;11407;56.964;-2.212;2022-10-16T07:04:07;1.13;;;0.43;;
22480;SDS011;11407;56.964;-2.212;2022-10-16T07:06:33;0.40;;;0.40;;
22480;SDS011;11407;56.964;-2.212;2022-10-16T07:09:00;0.60;;;0.50;;
22480;SDS011;11407;56.964;-2.212;2022-10-16T07:11:27;0.30;;;0.30;;
22480;SDS011;11407;56.964;-2.212;2022-10-16T07:13:52;0.40;;;0.40;;
22480;SDS011;11407;56.964;-2.212;2022-10-16T07:16:19;1.50;;;0.30;;
22480;SDS011;11407;56.964;-2.212;2022-10-16T07:18:46;0.40;;;0.40;;
22480;SDS011;11407;56.964;-2.212;2022-10-16T07:21:15;0.43;;;0.43;;
22480;SDS011;11407;56.964;-2.212;2022-10-16T07:23:41;0.40;;;0.40;;
22480;SDS011;11407;56.964;-2.212;2022-10-16T07:26:07;0.30;;;0.30;;
22480;SDS011;11407;56.964;-2.212;2022-10-16T07:28:32;0.47;;;0.40;;
22480;SDS011;11407;56.964;-2.212;2022-10-16T07:31:02;0.40;;;0.40;;
22480;SDS011;11407;56.964;-2.212;2022-10-16T07:33:30;0.50;;;0.30;;
22480;SDS011;11407;56.964;-2.212;2022-10-16T07:35:55;0.30;;;0.30;;
22480;SDS011;11407;56.964;-2.212;2022-10-16T07:38:21;0.40;;;0.40;;
22480;SDS011;11407;56.964;-2.212;2022-10-16T07:40:47;0.30;;;0.30;;
22480;SDS011;11407;56.964;-2.212;2022-10-16T07:43:13;0.30;;;0.30;;
22480;SDS011;11407;56.964;-2.212;2022-10-16T07:45:48;0.93;;;0.40;;
22480;SDS011;11407;56.964;-2.212;2022-10-16T07:48:15;0.40;;;0.40;;
22480;SDS011;11407;56.964;-2.212;2022-10-16T07:50:41;0.30;;;0.30;;
22480;SDS011;11407;56.964;-2.212;2022-10-16T07:53:07;0.70;;;0.30;;
22480;SDS011;11407;56.964;-2.212;2022-10-16T07:55:33;1.10;;;0.53;;
22480;SDS011;11407;56.964;-2.212;2022-10-16T07:57:58;0.77;;;0.40;;
22480;SDS011;11407;56.964;-2.212;2022-10-16T08:00:24;0.80;;;0.40;;
22480;SDS011;11407;56.964;-2.212;2022-10-16T08:02:49;0.50;;;0.50;;
22480;SDS011;11407;56.964;-2.212;2022-10-16T08:05:14;0.37;;;0.30;;
22480;SDS011;11407;56.964;-2.212;2022-10-16T08:07:40;0.57;;;0.40;;
22480;SDS011;11407;56.964;-2.212;2022-10-16T08:10:05;0.50;;;0.50;;
22480;SDS011;11407;56.964;-2.212;2022-10-16T08:12:31;0.60;;;0.50;;
22480;SDS011;11407;56.964;-2.212;2022-10-16T08:14:56;0.30;;;0.30;;
22480;SDS011;11407;56.964;-2.212;2022-10-16T08:17:22;0.50;;;0.40;;
22480;SDS011;11407;56.964;-2.212;2022-10-16T08:19:47;0.40;;;0.40;;
22480;SDS011;11407;56.964;-2.212;2022-10-16T08:22:13;0.30;;;0.30;;
22480;SDS011;11407;56.964;-2.212;2022-10-16T08:24:39;0.63;;;0.40;;
22480;SDS011;11407;56.964;-2.212;2022-10-16T08:27:05;0.50;;;0.50;;
22480;SDS011;11407;56.964;-2.212;2022-10-16T08:29:30;0.60;;;0.30;;
22480;SDS011;11407;56.964;-2.212;2022-10-16T08:31:56;0.30;;;0.30;;
22480;SDS011;11407;56.964;-2.212;2022-10-16T08:34:21;0.30;;;0.30;;
22480;SDS011;11407;56.964;-2.212;2022-10-16T08:36:47;0.53;;;0.40;;
22480;SDS011;11407;56.964;-2.212;2022-10-16T08:39:12;0.30;;;0.30;;
22480;SDS011;11407;56.964;-2.212;2022-10-16T08:44:25;0.57;;;0.40;;
22480;SDS011;11407;56.964;-2.212;2022-10-16T08:49:57;0.40;;;0.40;;
22480;SDS011;11407;56.964;-2.212;2022-10-16T08:52:32;0.50;;;0.40;;
22480;SDS011;11407;56.964;-2.212;2022-10-16T08:55:00;0.63;;;0.30;;
22480;SDS011;11407;56.964;-2.212;2022-10-16T08:57:27;1.60;;;0.53;;
22480;SDS011;11407;56.964;-2.212;2022-10-16T08:59:53;0.50;;;0.40;;
22480;SDS011;11407;56.964;-2.212;2022-10-16T09:23:32;1.17;;;0.57;;
22480;SDS011;11407;56.964;-2.212;2022-10-16T09:26:00;1.23;;;0.90;;
22480;SDS011;11407;56.964;-2.212;2022-10-16T09:28:27;2.13;;;0.73;;
22480;SDS011;11407;56.964;-2.212;2022-10-16T09:30:52;0.83;;;0.83;;
22480;SDS011;11407;56.964;-2.212;2022-10-16T09:33:20;0.40;;;0.40;;
22480;SDS011;11407;56.964;-2.212;2022-10-16T09:35:49;1.10;;;0.50;;
22480;SDS011;11407;56.964;-2.212;2022-10-16T09:38:21;0.73;;;0.50;;
22480;SDS011;11407;56.964;-2.212;2022-10-16T09:40:48;0.70;;;0.47;;
22480;SDS011;11407;56.964;-2.212;2022-10-16T09:46:04;0.30;;;0.30;;
22480;SDS011;11407;56.964;-2.212;2022-10-16T09:48:39;0.40;;;0.40;;
22480;SDS011;11407;56.964;-2.212;2022-10-16T09:53:44;0.40;;;0.30;;
22480;SDS011;11407;56.964;-2.212;2022-10-16T09:56:11;0.30;;;0.30;;
22480;SDS011;11407;56.964;-2.212;2022-10-16T09:58:50;0.40;;;0.40;;
22480;SDS011;11407;56.964;-2.212;2022-10-16T10:01:21;0.53;;;0.33;;
22480;SDS011;11407;56.964;-2.212;2022-10-16T10:03:55;0.40;;;0.40;;
22480;SDS011;11407;56.964;-2.212;2022-10-16T10:06:27;0.27;;;0.27;;
22480;SDS011;11407;56.964;-2.212;2022-10-16T10:09:06;0.40;;;0.40;;
22480;SDS011;11407;56.964;-2.212;2022-10-16T10:11:42;0.30;;;0.30;;
22480;SDS011;11407;56.964;-2.212;2022-10-16T10:14:15;0.30;;;0.30;;
22480;SDS011;11407;56.964;-2.212;2022-10-16T10:16:44;0.30;;;0.30;;
22480;SDS011;11407;56.964;-2.212;2022-10-16T10:19:14;0.40;;;0.40;;
22480;SDS011;11407;56.964;-2.212;2022-10-16T10:21:49;0.30;;;0.30;;
22480;SDS011;11407;56.964;-2.212;2022-10-16T10:24:17;0.40;;;0.40;;
22480;SDS011;11407;56.964;-2.212;2022-10-16T10:29:44;0.30;;;0.30;;
22480;SDS011;11407;56.964;-2.212;2022-10-16T10:32:27;0.40;;;0.40;;
22480;SDS011;11407;56.964;-2.212;2022-10-16T10:35:02;0.40;;;0.40;;
22480;SDS011;11407;56.964;-2.212;2022-10-16T10:37:49;1.70;;;0.40;;
22480;SDS011;11407;56.964;-2.212;2022-10-16T10:45:47;0.43;;;0.30;;
22480;SDS011;11407;56.964;-2.212;2022-10-16T10:48:21;0.40;;;0.40;;
22480;SDS011;11407;56.964;-2.212;2022-10-16T10:50:50;0.37;;;0.37;;
22480;SDS011;11407;56.964;-2.212;2022-10-16T10:53:29;0.40;;;0.40;;
22480;SDS011;11407;56.964;-2.212;2022-10-16T10:59:16;0.37;;;0.37;;
22480;SDS011;11407;56.964;-2.212;2022-10-16T11:08:19;0.23;;;0.23;;
22480;SDS011;11407;56.964;-2.212;2022-10-16T11:15:57;0.30;;;0.30;;
22480;SDS011;11407;56.964;-2.212;2022-10-16T11:21:07;0.30;;;0.30;;
22480;SDS011;11407;56.964;-2.212;2022-10-16T11:23:55;0.40;;;0.40;;
22480;SDS011;11407;56.964;-2.212;2022-10-16T11:26:28;0.87;;;0.40;;
22480;SDS011;11407;56.964;-2.212;2022-10-16T11:28:58;0.60;;;0.30;;
22480;SDS011;11407;56.964;-2.212;2022-10-16T11:31:34;0.57;;;0.40;;
22480;SDS011;11407;56.964;-2.212;2022-10-16T11:36:42;0.80;;;0.40;;
22480;SDS011;11407;56.964;-2.212;2022-10-16T11:41:47;0.30;;;0.30;;
22480;SDS011;11407;56.964;-2.212;2022-10-16T11:46:58;0.60;;;0.50;;
22480;SDS011;11407;56.964;-2.212;2022-10-16T11:49:25;0.43;;;0.43;;
22480;SDS011;11407;56.964;-2.212;2022-10-16T11:51:59;0.73;;;0.47;;
22480;SDS011;11407;56.964;-2.212;2022-10-16T11:54:35;0.40;;;0.40;;
22480;SDS011;11407;56.964;-2.212;2022-10-16T11:57:09;0.83;;;0.50;;
22480;SDS011;11407;56.964;-2.212;2022-10-16T11:59:42;0.40;;;0.40;;
22480;SDS011;11407;56.964;-2.212;2022-10-16T12:04:57;0.70;;;0.40;;
22480;SDS011;11407;56.964;-2.212;2022-10-16T12:07:32;0.50;;;0.50;;
22480;SDS011;11407;56.964;-2.212;2022-10-16T12:10:18;0.40;;;0.40;;
22480;SDS011;11407;56.964;-2.212;2022-10-16T12:12:46;1.27;;;0.40;;
22480;SDS011;11407;56.964;-2.212;2022-10-16T12:15:19;0.30;;;0.30;;
22480;SDS011;11407;56.964;-2.212;2022-10-16T12:17:48;0.40;;;0.40;;
22480;SDS011;11407;56.964;-2.212;2022-10-16T12:22:55;0.40;;;0.40;;
22480;SDS011;11407;56.964;-2.212;2022-10-16T12:25:33;1.20;;;0.73;;
22480;SDS011;11407;56.964;-2.212;2022-10-16T12:28:01;0.40;;;0.40;;
22480;SDS011;11407;56.964;-2.212;2022-10-16T12:30:31;0.30;;;0.30;;
22480;SDS011;11407;56.964;-2.212;2022-10-16T12:33:05;0.40;;;0.40;;
22480;SDS011;11407;56.964;-2.212;2022-10-16T12:36:02;1.00;;;0.80;;
22480;SDS011;11407;56.964;-2.212;2022-10-16T12:38:52;1.47;;;0.80;;
22480;SDS011;11407;56.964;-2.212;2022-10-16T12:41:29;1.70;;;1.13;;
22480;SDS011;11407;56.964;-2.212;2022-10-16T12:43:56;1.50;;;0.90;;
22480;SDS011;11407;56.964;-2.212;2022-10-16T12:48:49;1.13;;;0.63;;
22480;SDS011;11407;56.964;-2.212;2022-10-16T12:51:22;0.43;;;0.43;;
22480;SDS011;11407;56.964;-2.212;2022-10-16T12:54:04;0.37;;;0.37;;
22480;SDS011;11407;56.964;-2.212;2022-10-16T12:56:41;0.40;;;0.40;;
22480;SDS011;11407;56.964;-2.212;2022-10-16T13:23:32;0.57;;;0.40;;
22480;SDS011;11407;56.964;-2.212;2022-10-16T13:26:17;0.40;;;0.40;;
22480;SDS011;11407;56.964;-2.212;2022-10-16T13:28:53;0.70;;;0.60;;
22480;SDS011;11407;56.964;-2.212;2022-10-16T13:31:25;0.50;;;0.50;;
22480;SDS011;11407;56.964;-2.212;2022-10-16T13:33:51;0.40;;;0.40;;
22480;SDS011;11407;56.964;-2.212;2022-10-16T13:36:25;0.73;;;0.37;;
22480;SDS011;11407;56.964;-2.212;2022-10-16T13:39:11;1.10;;;0.40;;
22480;SDS011;11407;56.964;-2.212;2022-10-16T13:41:42;2.07;;;0.40;;
22480;SDS011;11407;56.964;-2.212;2022-10-16T13:44:28;0.40;;;0.33;;
22480;SDS011;11407;56.964;-2.212;2022-10-16T13:47:02;0.83;;;0.40;;
22480;SDS011;11407;56.964;-2.212;2022-10-16T13:49:28;0.60;;;0.37;;
22480;SDS011;11407;56.964;-2.212;2022-10-16T13:51:57;0.97;;;0.40;;
22480;SDS011;11407;56.964;-2.212;2022-10-16T13:54:24;0.87;;;0.40;;
22480;SDS011;11407;56.964;-2.212;2022-10-16T13:56:51;0.50;;;0.50;;
22480;SDS011;11407;56.964;-2.212;2022-10-16T14:01:54;0.33;;;0.30;;
22480;SDS011;11407;56.964;-2.212;2022-10-16T14:04:22;1.17;;;0.70;;
22480;SDS011;11407;56.964;-2.212;2022-10-16T14:06:49;2.00;;;0.40;;
22480;SDS011;11407;56.964;-2.212;2022-10-16T14:09:28;0.63;;;0.50;;
22480;SDS011;11407;56.964;-2.212;2022-10-16T14:12:02;0.87;;;0.50;;
22480;SDS011;11407;56.964;-2.212;2022-10-16T14:14:42;0.60;;;0.43;;
22480;SDS011;11407;56.964;-2.212;2022-10-16T14:17:22;0.30;;;0.30;;
22480;SDS011;11407;56.964;-2.212;2022-10-16T14:19:57;1.73;;;0.60;;
22480;SDS011;11407;56.964;-2.212;2022-10-16T14:22:27;0.50;;;0.37;;
22480;SDS011;11407;56.964;-2.212;2022-10-16T14:27:43;1.33;;;0.50;;
22480;SDS011;11407;56.964;-2.212;2022-10-16T14:30:13;2.03;;;0.70;;
22480;SDS011;11407;56.964;-2.212;2022-10-16T14:32:42;0.50;;;0.40;;
22480;SDS011;11407;56.964;-2.212;2022-10-16T14:35:26;1.93;;;0.70;;
22480;SDS011;11407;56.964;-2.212;2022-10-16T14:37:55;1.00;;;0.60;;
22480;SDS011;11407;56.964;-2.212;2022-10-16T14:40:23;0.73;;;0.60;;
22480;SDS011;11407;56.964;-2.212;2022-10-16T14:43:00;0.47;;;0.47;;
22480;SDS011;11407;56.964;-2.212;2022-10-16T14:45:28;2.30;;;0.70;;
22480;SDS011;11407;56.964;-2.212;2022-10-16T14:47:56;1.30;;;0.60;;
22480;SDS011;11407;56.964;-2.212;2022-10-16T14:50:23;2.30;;;0.53;;
22480;SDS011;11407;56.964;-2.212;2022-10-16T14:52:49;2.73;;;0.80;;
22480;SDS011;11407;56.964;-2.212;2022-10-16T14:55:15;1.00;;;0.50;;
22480;SDS011;11407;56.964;-2.212;2022-10-16T14:57:42;1.33;;;0.70;;
22480;SDS011;11407;56.964;-2.212;2022-10-16T15:00:19;1.27;;;0.60;;
22480;SDS011;11407;56.964;-2.212;2022-10-16T15:02:47;0.80;;;0.60;;
22480;SDS011;11407;56.964;-2.212;2022-10-16T15:05:18;0.80;;;0.60;;
22480;SDS011;11407;56.964;-2.212;2022-10-16T15:07:47;2.30;;;0.90;;
22480;SDS011;11407;56.964;-2.212;2022-10-16T15:10:14;0.70;;;0.70;;
22480;SDS011;11407;56.964;-2.212;2022-10-16T15:12:40;1.50;;;0.90;;
22480;SDS011;11407;56.964;-2.212;2022-10-16T15:17:52;1.10;;;0.67;;
22480;SDS011;11407;56.964;-2.212;2022-10-16T15:20:21;1.33;;;0.50;;
22480;SDS011;11407;56.964;-2.212;2022-10-16T15:22:47;3.30;;;1.30;;
22480;SDS011;11407;56.964;-2.212;2022-10-16T15:28:02;7.23;;;1.10;;
22480;SDS011;11407;56.964;-2.212;2022-10-16T15:30:29;2.00;;;1.07;;
22480;SDS011;11407;56.964;-2.212;2022-10-16T15:32:54;1.63;;;1.00;;
22480;SDS011;11407;56.964;-2.212;2022-10-16T15:35:20;1.50;;;0.93;;
22480;SDS011;11407;56.964;-2.212;2022-10-16T15:37:46;2.70;;;1.00;;
22480;SDS011;11407;56.964;-2.212;2022-10-16T15:40:12;2.47;;;1.07;;
22480;SDS011;11407;56.964;-2.212;2022-10-16T15:42:38;3.10;;;1.10;;
22480;SDS011;11407;56.964;-2.212;2022-10-16T15:45:04;2.60;;;1.10;;
22480;SDS011;11407;56.964;-2.212;2022-10-16T15:47:31;3.63;;;1.00;;
22480;SDS011;11407;56.964;-2.212;2022-10-16T15:49:56;2.93;;;0.80;;
22480;SDS011;11407;56.964;-2.212;2022-10-16T15:52:22;2.77;;;1.03;;
22480;SDS011;11407;56.964;-2.212;2022-10-16T15:54:47;2.23;;;1.10;;
22480;SDS011;11407;56.964;-2.212;2022-10-16T15:57:13;1.77;;;1.03;;
22480;SDS011;11407;56.964;-2.212;2022-10-16T15:59:38;1.63;;;0.97;;
22480;SDS011;11407;56.964;-2.212;2022-10-16T16:02:04;1.47;;;0.93;;
22480;SDS011;11407;56.964;-2.212;2022-10-16T16:04:29;2.40;;;1.00;;
22480;SDS011;11407;56.964;-2.212;2022-10-16T16:06:55;5.77;;;1.30;;
22480;SDS011;11407;56.964;-2.212;2022-10-16T16:09:21;1.73;;;0.90;;
22480;SDS011;11407;56.964;-2.212;2022-10-16T16:11:46;2.30;;;0.90;;
22480;SDS011;11407;56.964;-2.212;2022-10-16T16:14:13;2.57;;;0.87;;
22480;SDS011;11407;56.964;-2.212;2022-10-16T16:16:39;1.67;;;0.80;;
22480;SDS011;11407;56.964;-2.212;2022-10-16T16:19:05;3.27;;;0.80;;
22480;SDS011;11407;56.964;-2.212;2022-10-16T16:21:32;1.70;;;1.07;;
22480;SDS011;11407;56.964;-2.212;2022-10-16T16:23:58;1.23;;;0.90;;
22480;SDS011;11407;56.964;-2.212;2022-10-16T16:26:28;2.20;;;1.03;;
22480;SDS011;11407;56.964;-2.212;2022-10-16T16:28:59;2.33;;;1.00;;
22480;SDS011;11407;56.964;-2.212;2022-10-16T16:31:25;3.67;;;1.23;;
22480;SDS011;11407;56.964;-2.212;2022-10-16T16:33:52;3.57;;;1.40;;
22480;SDS011;11407;56.964;-2.212;2022-10-16T16:36:17;4.73;;;1.83;;
22480;SDS011;11407;56.964;-2.212;2022-10-16T16:38:43;3.70;;;1.60;;
22480;SDS011;11407;56.964;-2.212;2022-10-16T16:41:16;3.57;;;1.63;;
22480;SDS011;11407;56.964;-2.212;2022-10-16T16:43:45;2.90;;;1.83;;
22480;SDS011;11407;56.964;-2.212;2022-10-16T16:46:12;4.00;;;1.90;;
22480;SDS011;11407;56.964;-2.212;2022-10-16T16:48:39;3.03;;;1.77;;